Aérodrome :
LOGIN :

S'inscrire | Disclaimer

   EN    FR    IT 

 










Légende :    VFR   VFR Marginal   IFR   IFR Intensif   IFR Très Intensif
Visi : 
Plafond : 
>= 8 km
>= 3000ft
5 à 8 km
1000 à 3000 ft
1500m à 5 km
500 à 1000 ft
800 à 1500m
200 à 500 ft
< 800m
< 200 ft
Symboles :   Orages  Brouillard  Fortes neiges  Fortes précipitations  Vent > 20 kt
SIGMETs :   Divers  Orages  Givrage  Turbulence  Onde Orograph.  Cendres Volcan.






- Altitude de l'aérodrome : 14 ft
- Code IATA : LXS


LGLM - Ifaistos

DERNIER METAR :
  • 230550Z 00000KT 0500 FG BKN005 16/16 Q1019

METARs EXPIRÉS :
  • 230520Z 00000KT 0500 FG BKN005 15/15 Q1019
  • 230450Z 00000KT 0500 FG BKN005 15/15 Q1019
  • 230420Z 00000KT 0500 FG BKN005 14/14 Q1019
  • 230350Z 00000KT 2000 BR BKN005 14/14 Q1019
  • 230320Z 00000KT 5000 BR SCT005 14/14 Q1019

TAF TAF LGLM
Valide du 23 à 06h jusqu'au 23 à 15h UTC


230500Z 2306/2315 20007KT 7000 FEW008 SCT020
TEMPO 2306/2308 0500 FG BKN005



MET'MAP, la Météo Aéronautique d'un coup d'oeil ! - Copyright ORBIFLY Décembre 2007 - Disclaimer

ORBIFLY MET'MAP TEAM :

Programmation & Développement : Alexandra Zaïnal
Sur une idée originale de : Baudouin d'Aumeries
Assistance à la programmation : Marc-Olivier Méhu
Soutien technique & logistique : Manuel Goepfert

Contact : metmap@orbifly.com




SOURCES & CREDITS :

   NOAA